sensor_id;sensor_type;location;lat;lon;timestamp;pressure;altitude;pressure_sealevel;temperature;humidity
54666;BME280;40566;50.006;36.180;2023-04-16T00:04:48;100759.84;;;5.85;58.25
54666;BME280;40566;50.006;36.180;2023-04-16T00:09:49;100757.22;;;5.79;58.15
54666;BME280;40566;50.006;36.180;2023-04-16T00:14:50;100765.78;;;5.79;58.10
54666;BME280;40566;50.006;36.180;2023-04-16T00:19:50;100767.47;;;5.75;58.11
54666;BME280;40566;50.006;36.180;2023-04-16T00:24:51;100758.91;;;5.76;58.13
54666;BME280;40566;50.006;36.180;2023-04-16T00:29:51;100770.88;;;5.73;58.27
54666;BME280;40566;50.006;36.180;2023-04-16T00:34:52;100775.09;;;5.68;58.37
54666;BME280;40566;50.006;36.180;2023-04-16T00:39:52;100769.94;;;5.65;58.45
54666;BME280;40566;50.006;36.180;2023-04-16T00:44:53;100783.63;;;5.64;58.46
54666;BME280;40566;50.006;36.180;2023-04-16T00:49:53;100783.56;;;5.61;58.48
54666;BME280;40566;50.006;36.180;2023-04-16T00:54:54;100775.84;;;5.56;58.52
54666;BME280;40566;50.006;36.180;2023-04-16T00:59:56;100773.25;;;5.54;58.59
54666;BME280;40566;50.006;36.180;2023-04-16T01:04:57;100774.06;;;5.47;58.83
54666;BME280;40566;50.006;36.180;2023-04-16T01:09:58;100779.31;;;5.60;59.12
54666;BME280;40566;50.006;36.180;2023-04-16T01:14:58;100780.03;;;5.48;59.15
54666;BME280;40566;50.006;36.180;2023-04-16T01:19:59;100775.72;;;5.44;59.22
54666;BME280;40566;50.006;36.180;2023-04-16T01:25:00;100773.16;;;5.44;59.03
54666;BME280;40566;50.006;36.180;2023-04-16T01:30:01;100765.47;;;5.44;59.20
54666;BME280;40566;50.006;36.180;2023-04-16T01:35:01;100768.91;;;5.46;59.23
54666;BME280;40566;50.006;36.180;2023-04-16T01:40:02;100770.63;;;5.45;59.22
54666;BME280;40566;50.006;36.180;2023-04-16T01:45:03;100780.00;;;5.45;59.24
54666;BME280;40566;50.006;36.180;2023-04-16T01:50:05;100782.53;;;5.40;59.46
54666;BME280;40566;50.006;36.180;2023-04-16T01:55:06;100790.22;;;5.40;59.38
54666;BME280;40566;50.006;36.180;2023-04-16T02:00:07;100796.19;;;5.36;59.59
54666;BME280;40566;50.006;36.180;2023-04-16T02:05:08;100793.63;;;5.36;59.49
54666;BME280;40566;50.006;36.180;2023-04-16T02:10:09;100792.69;;;5.29;59.35
54666;BME280;40566;50.006;36.180;2023-04-16T02:15:09;100801.25;;;5.33;59.68
54666;BME280;40566;50.006;36.180;2023-04-16T02:20:10;100806.47;;;5.39;59.12
54666;BME280;40566;50.006;36.180;2023-04-16T02:25:11;100812.44;;;5.38;59.69
54666;BME280;40566;50.006;36.180;2023-04-16T02:30:13;100814.13;;;5.36;59.67
54666;BME280;40566;50.006;36.180;2023-04-16T02:35:14;100819.22;;;5.33;59.74
54666;BME280;40566;50.006;36.180;2023-04-16T02:40:14;100810.72;;;5.35;59.79
54666;BME280;40566;50.006;36.180;2023-04-16T02:45:15;100814.97;;;5.33;60.01
54666;BME280;40566;50.006;36.180;2023-04-16T02:50:16;100819.19;;;5.28;59.97
54666;BME280;40566;50.006;36.180;2023-04-16T02:55:17;100823.47;;;5.29;59.89
54666;BME280;40566;50.006;36.180;2023-04-16T03:00:18;100843.13;;;5.29;60.08
54666;BME280;40566;50.006;36.180;2023-04-16T03:05:18;100847.41;;;5.28;59.94
54666;BME280;40566;50.006;36.180;2023-04-16T03:10:19;100845.72;;;5.30;59.94
54666;BME280;40566;50.006;36.180;2023-04-16T03:15:20;100847.38;;;5.25;60.16
54666;BME280;40566;50.006;36.180;2023-04-16T03:20:20;100854.31;;;5.34;60.11
54666;BME280;40566;50.006;36.180;2023-04-16T03:25:21;100856.84;;;5.32;60.21
54666;BME280;40566;50.006;36.180;2023-04-16T03:30:21;100864.59;;;5.35;60.09
54666;BME280;40566;50.006;36.180;2023-04-16T03:35:22;100871.47;;;5.40;60.24
54666;BME280;40566;50.006;36.180;2023-04-16T03:40:22;100868.06;;;5.42;60.06
54666;BME280;40566;50.006;36.180;2023-04-16T03:45:23;100874.91;;;5.40;60.36
54666;BME280;40566;50.006;36.180;2023-04-16T03:50:24;100877.47;;;5.40;60.35
54666;BME280;40566;50.006;36.180;2023-04-16T03:55:24;100877.50;;;5.43;60.26
54666;BME280;40566;50.006;36.180;2023-04-16T04:00:25;100880.97;;;5.45;60.26
54666;BME280;40566;50.006;36.180;2023-04-16T04:05:25;100884.47;;;5.53;60.39
54666;BME280;40566;50.006;36.180;2023-04-16T04:10:26;100884.53;;;5.63;60.10
54666;BME280;40566;50.006;36.180;2023-04-16T04:15:26;100882.06;;;5.69;60.30
54666;BME280;40566;50.006;36.180;2023-04-16T04:20:27;100884.69;;;5.75;60.20
54666;BME280;40566;50.006;36.180;2023-04-16T04:25:27;100892.53;;;5.87;60.16
54666;BME280;40566;50.006;36.180;2023-04-16T04:30:28;100893.38;;;5.89;60.33
54666;BME280;40566;50.006;36.180;2023-04-16T04:35:29;100900.22;;;5.90;60.39
54666;BME280;40566;50.006;36.180;2023-04-16T04:40:29;100892.53;;;5.89;60.50
54666;BME280;40566;50.006;36.180;2023-04-16T04:45:30;100890.88;;;5.92;60.43
54666;BME280;40566;50.006;36.180;2023-04-16T04:50:31;100885.00;;;6.03;60.31
54666;BME280;40566;50.006;36.180;2023-04-16T04:55:31;100891.19;;;6.26;60.13
54666;BME280;40566;50.006;36.180;2023-04-16T05:00:33;100888.72;;;6.42;59.72
54666;BME280;40566;50.006;36.180;2023-04-16T05:05:34;100881.06;;;6.45;60.02
54666;BME280;40566;50.006;36.180;2023-04-16T05:10:34;100880.25;;;6.55;59.71
54666;BME280;40566;50.006;36.180;2023-04-16T05:15:35;100876.91;;;6.65;59.87
54666;BME280;40566;50.006;36.180;2023-04-16T05:20:36;100895.84;;;6.77;59.53
54666;BME280;40566;50.006;36.180;2023-04-16T05:25:37;100895.06;;;6.90;59.38
54666;BME280;40566;50.006;36.180;2023-04-16T05:30:37;100897.69;;;6.99;59.28
54666;BME280;40566;50.006;36.180;2023-04-16T05:35:38;100896.84;;;7.02;59.31
54666;BME280;40566;50.006;36.180;2023-04-16T05:40:38;100902.03;;;7.14;58.81
54666;BME280;40566;50.006;36.180;2023-04-16T05:45:39;100889.16;;;7.08;59.19
54666;BME280;40566;50.006;36.180;2023-04-16T05:50:40;100890.97;;;7.23;59.00
54666;BME280;40566;50.006;36.180;2023-04-16T05:55:41;100894.44;;;7.37;58.28
54666;BME280;40566;50.006;36.180;2023-04-16T06:00:42;100893.63;;;7.52;58.04
54666;BME280;40566;50.006;36.180;2023-04-16T06:05:43;100904.84;;;7.77;57.17
54666;BME280;40566;50.006;36.180;2023-04-16T06:10:47;100879.97;;;7.98;56.68
54666;BME280;40566;50.006;36.180;2023-04-16T06:15:48;100892.88;;;8.21;56.16
54666;BME280;40566;50.006;36.180;2023-04-16T06:20:48;100890.31;;;8.25;56.10
54666;BME280;40566;50.006;36.180;2023-04-16T06:25:49;100879.16;;;8.19;56.54
54666;BME280;40566;50.006;36.180;2023-04-16T06:30:50;100890.31;;;8.27;56.59
54666;BME280;40566;50.006;36.180;2023-04-16T06:35:50;100901.53;;;8.44;55.70
54666;BME280;40566;50.006;36.180;2023-04-16T06:40:51;100902.38;;;8.48;55.18
54666;BME280;40566;50.006;36.180;2023-04-16T06:45:52;100888.63;;;8.53;54.63
54666;BME280;40566;50.006;36.180;2023-04-16T06:50:53;100877.44;;;8.59;54.38
54666;BME280;40566;50.006;36.180;2023-04-16T06:55:54;100887.72;;;8.82;53.96
54666;BME280;40566;50.006;36.180;2023-04-16T07:00:54;100892.88;;;8.87;53.88
54666;BME280;40566;50.006;36.180;2023-04-16T07:05:55;100898.03;;;8.95;53.77
54666;BME280;40566;50.006;36.180;2023-04-16T07:10:56;100890.25;;;9.08;53.46
54666;BME280;40566;50.006;36.180;2023-04-16T07:15:56;100892.75;;;9.24;53.22
54666;BME280;40566;50.006;36.180;2023-04-16T07:20:57;100889.25;;;9.36;53.06
54666;BME280;40566;50.006;36.180;2023-04-16T07:25:58;100886.56;;;9.62;52.63
54666;BME280;40566;50.006;36.180;2023-04-16T07:30:58;100895.00;;;9.87;51.99
54666;BME280;40566;50.006;36.180;2023-04-16T07:35:59;100875.09;;;10.03;51.79
54666;BME280;40566;50.006;36.180;2023-04-16T07:41:00;100871.34;;;10.42;51.52
54666;BME280;40566;50.006;36.180;2023-04-16T07:46:01;100882.34;;;10.66;50.88
54666;BME280;40566;50.006;36.180;2023-04-16T07:51:01;100891.53;;;10.96;50.19
54666;BME280;40566;50.006;36.180;2023-04-16T07:56:02;100886.28;;;11.04;49.83
54666;BME280;40566;50.006;36.180;2023-04-16T08:01:03;100884.47;;;11.07;49.25
54666;BME280;40566;50.006;36.180;2023-04-16T08:06:03;100880.97;;;11.11;49.62
54666;BME280;40566;50.006;36.180;2023-04-16T08:11:04;100882.66;;;11.16;49.27
54666;BME280;40566;50.006;36.180;2023-04-16T08:16:05;100871.25;;;11.30;49.18
54666;BME280;40566;50.006;36.180;2023-04-16T08:21:05;100870.28;;;11.41;48.77
54666;BME280;40566;50.006;36.180;2023-04-16T08:26:06;100877.00;;;11.56;48.60
54666;BME280;40566;50.006;36.180;2023-04-16T08:31:07;100875.09;;;11.67;48.46
54666;BME280;40566;50.006;36.180;2023-04-16T08:36:08;100863.56;;;11.89;47.97
54666;BME280;40566;50.006;36.180;2023-04-16T08:41:11;100857.44;;;11.97;47.36
54666;BME280;40566;50.006;36.180;2023-04-16T08:46:15;100859.72;;;12.14;46.90
54666;BME280;40566;50.006;36.180;2023-04-16T08:51:18;100853.34;;;12.35;47.04
54666;BME280;40566;50.006;36.180;2023-04-16T08:56:22;100852.09;;;12.56;46.40
54666;BME280;40566;50.006;36.180;2023-04-16T09:01:24;100846.56;;;12.74;45.86
54666;BME280;40566;50.006;36.180;2023-04-16T09:06:26;100848.78;;;12.94;45.71
54666;BME280;40566;50.006;36.180;2023-04-16T09:11:27;100847.09;;;13.35;45.33
54666;BME280;40566;50.006;36.180;2023-04-16T09:16:32;100842.25;;;13.59;44.71
54666;BME280;40566;50.006;36.180;2023-04-16T09:21:33;100846.03;;;13.83;44.31
54666;BME280;40566;50.006;36.180;2023-04-16T09:26:35;100837.34;;;14.20;43.46
54666;BME280;40566;50.006;36.180;2023-04-16T09:31:35;100848.81;;;14.80;41.93
54666;BME280;40566;50.006;36.180;2023-04-16T09:36:36;100831.25;;;17.03;38.38
54666;BME280;40566;50.006;36.180;2023-04-16T09:41:37;100838.00;;;18.82;35.50
54666;BME280;40566;50.006;36.180;2023-04-16T09:46:42;100837.56;;;18.71;35.52
54666;BME280;40566;50.006;36.180;2023-04-16T09:51:44;100832.84;;;20.10;33.08
54666;BME280;40566;50.006;36.180;2023-04-16T09:56:45;100834.84;;;20.05;33.18
54666;BME280;40566;50.006;36.180;2023-04-16T10:01:47;100847.38;;;21.19;31.55
54666;BME280;40566;50.006;36.180;2023-04-16T10:07:05;100837.34;;;22.04;31.37
54666;BME280;40566;50.006;36.180;2023-04-16T10:12:07;100847.16;;;23.05;29.40
54666;BME280;40566;50.006;36.180;2023-04-16T10:17:08;100834.66;;;22.35;30.38
54666;BME280;40566;50.006;36.180;2023-04-16T10:22:09;100826.94;;;22.47;30.75
54666;BME280;40566;50.006;36.180;2023-04-16T10:27:10;100828.81;;;24.38;28.14
54666;BME280;40566;50.006;36.180;2023-04-16T10:32:11;100827.22;;;25.85;26.31
54666;BME280;40566;50.006;36.180;2023-04-16T10:37:14;100821.19;;;26.87;25.61
54666;BME280;40566;50.006;36.180;2023-04-16T10:42:17;100823.44;;;26.36;26.45
54666;BME280;40566;50.006;36.180;2023-04-16T10:47:17;100827.97;;;25.87;26.57
54666;BME280;40566;50.006;36.180;2023-04-16T10:52:18;100818.88;;;27.17;24.60
54666;BME280;40566;50.006;36.180;2023-04-16T10:57:19;100812.00;;;24.39;27.85
54666;BME280;40566;50.006;36.180;2023-04-16T11:02:20;100819.94;;;23.59;28.92
54666;BME280;40566;50.006;36.180;2023-04-16T11:07:32;100794.34;;;24.65;27.47
54666;BME280;40566;50.006;36.180;2023-04-16T11:12:45;100789.69;;;25.67;26.52
54666;BME280;40566;50.006;36.180;2023-04-16T11:17:48;100796.56;;;26.97;25.02
54666;BME280;40566;50.006;36.180;2023-04-16T11:22:51;100786.66;;;27.54;24.22
54666;BME280;40566;50.006;36.180;2023-04-16T11:27:52;100788.44;;;28.48;23.19
54666;BME280;40566;50.006;36.180;2023-04-16T11:32:53;100773.94;;;28.62;23.03
54666;BME280;40566;50.006;36.180;2023-04-16T11:37:57;100765.28;;;27.12;24.14
54666;BME280;40566;50.006;36.180;2023-04-16T11:43:02;100752.28;;;25.71;25.22
54666;BME280;40566;50.006;36.180;2023-04-16T11:48:03;100763.44;;;22.93;28.94
54666;BME280;40566;50.006;36.180;2023-04-16T11:53:04;100750.09;;;22.53;29.54
54666;BME280;40566;50.006;36.180;2023-04-16T11:58:12;100750.56;;;22.31;29.38
54666;BME280;40566;50.006;36.180;2023-04-16T12:03:12;100752.06;;;22.35;28.70
54666;BME280;40566;50.006;36.180;2023-04-16T12:08:27;100745.63;;;21.34;29.79
54666;BME280;40566;50.006;36.180;2023-04-16T12:13:29;100744.22;;;20.80;30.18
54666;BME280;40566;50.006;36.180;2023-04-16T12:18:30;100744.53;;;19.90;31.16
54666;BME280;40566;50.006;36.180;2023-04-16T12:23:32;100737.16;;;20.48;30.74
54666;BME280;40566;50.006;36.180;2023-04-16T12:28:34;100721.03;;;23.90;26.26
54666;BME280;40566;50.006;36.180;2023-04-16T12:33:35;100721.09;;;25.40;24.97
54666;BME280;40566;50.006;36.180;2023-04-16T12:38:36;100719.22;;;26.00;24.20
54666;BME280;40566;50.006;36.180;2023-04-16T12:43:37;100715.53;;;24.94;25.11
54666;BME280;40566;50.006;36.180;2023-04-16T12:48:37;100710.03;;;22.89;27.71
54666;BME280;40566;50.006;36.180;2023-04-16T12:53:38;100707.66;;;21.84;28.67
54666;BME280;40566;50.006;36.180;2023-04-16T12:58:38;100702.66;;;20.38;29.88
54666;BME280;40566;50.006;36.180;2023-04-16T13:03:39;100691.06;;;19.02;31.02
54666;BME280;40566;50.006;36.180;2023-04-16T13:08:40;100701.78;;;18.20;31.33
54666;BME280;40566;50.006;36.180;2023-04-16T13:13:41;100698.34;;;17.36;32.04
54666;BME280;40566;50.006;36.180;2023-04-16T13:18:42;100697.44;;;16.70;32.49
54666;BME280;40566;50.006;36.180;2023-04-16T13:23:42;100697.44;;;16.46;32.65
54666;BME280;40566;50.006;36.180;2023-04-16T13:28:43;100696.56;;;16.22;32.30
54666;BME280;40566;50.006;36.180;2023-04-16T13:33:43;100697.81;;;16.12;32.04
54666;BME280;40566;50.006;36.180;2023-04-16T13:38:44;100697.56;;;15.94;32.30
54666;BME280;40566;50.006;36.180;2023-04-16T13:43:45;100690.06;;;15.83;32.16
54666;BME280;40566;50.006;36.180;2023-04-16T13:48:45;100695.09;;;15.63;32.28
54666;BME280;40566;50.006;36.180;2023-04-16T13:53:46;100678.06;;;15.53;32.20
54666;BME280;40566;50.006;36.180;2023-04-16T13:58:47;100686.97;;;15.45;32.55
54666;BME280;40566;50.006;36.180;2023-04-16T14:03:48;100699.66;;;15.30;32.29
54666;BME280;40566;50.006;36.180;2023-04-16T14:08:48;100690.63;;;15.13;32.64
54666;BME280;40566;50.006;36.180;2023-04-16T14:13:49;100691.94;;;14.98;32.73
54666;BME280;40566;50.006;36.180;2023-04-16T14:18:49;100701.78;;;14.88;32.95
54666;BME280;40566;50.006;36.180;2023-04-16T14:23:51;100696.00;;;14.79;32.89
54666;BME280;40566;50.006;36.180;2023-04-16T14:28:52;100694.72;;;14.64;32.90
54666;BME280;40566;50.006;36.180;2023-04-16T14:33:52;100693.97;;;14.60;33.06
54666;BME280;40566;50.006;36.180;2023-04-16T14:38:53;100694.31;;;14.46;33.08
54666;BME280;40566;50.006;36.180;2023-04-16T14:43:53;100694.75;;;14.31;33.26
54666;BME280;40566;50.006;36.180;2023-04-16T14:48:54;100691.53;;;14.21;33.64
54666;BME280;40566;50.006;36.180;2023-04-16T14:53:55;100687.59;;;14.08;33.49
54666;BME280;40566;50.006;36.180;2023-04-16T14:58:55;100687.03;;;13.97;33.28
54666;BME280;40566;50.006;36.180;2023-04-16T15:03:56;100684.84;;;13.80;33.68
54666;BME280;40566;50.006;36.180;2023-04-16T15:08:58;100675.88;;;13.59;33.91
54666;BME280;40566;50.006;36.180;2023-04-16T15:13:58;100683.13;;;13.44;33.92
54666;BME280;40566;50.006;36.180;2023-04-16T15:18:59;100683.47;;;13.31;33.59
54666;BME280;40566;50.006;36.180;2023-04-16T15:24:00;100682.75;;;13.24;33.78
54666;BME280;40566;50.006;36.180;2023-04-16T15:29:01;100682.09;;;13.14;34.09
54666;BME280;40566;50.006;36.180;2023-04-16T15:34:01;100677.09;;;13.06;34.36
54666;BME280;40566;50.006;36.180;2023-04-16T15:39:02;100678.19;;;12.96;34.49
54666;BME280;40566;50.006;36.180;2023-04-16T15:44:03;100674.97;;;12.85;34.40
54666;BME280;40566;50.006;36.180;2023-04-16T15:49:04;100677.84;;;12.73;34.70
54666;BME280;40566;50.006;36.180;2023-04-16T15:54:06;100671.13;;;12.64;34.62
54666;BME280;40566;50.006;36.180;2023-04-16T15:59:06;100679.94;;;12.55;34.94
54666;BME280;40566;50.006;36.180;2023-04-16T16:04:07;100687.00;;;12.50;35.02
54666;BME280;40566;50.006;36.180;2023-04-16T16:09:08;100685.44;;;12.40;35.24
54666;BME280;40566;50.006;36.180;2023-04-16T16:14:09;100687.34;;;12.32;35.44
54666;BME280;40566;50.006;36.180;2023-04-16T16:19:10;100697.00;;;12.23;35.56
54666;BME280;40566;50.006;36.180;2023-04-16T16:24:11;100695.50;;;12.13;35.64
54666;BME280;40566;50.006;36.180;2023-04-16T16:29:13;100695.66;;;12.02;36.00
54666;BME280;40566;50.006;36.180;2023-04-16T16:34:13;100707.06;;;11.95;36.38
54666;BME280;40566;50.006;36.180;2023-04-16T16:39:14;100708.84;;;11.88;36.77
54666;BME280;40566;50.006;36.180;2023-04-16T16:44:14;100707.31;;;11.78;37.06
54666;BME280;40566;50.006;36.180;2023-04-16T16:49:15;100713.50;;;11.71;37.19
54666;BME280;40566;50.006;36.180;2023-04-16T16:54:16;100720.47;;;11.67;37.50
54666;BME280;40566;50.006;36.180;2023-04-16T16:59:17;100728.38;;;11.60;37.69
54666;BME280;40566;50.006;36.180;2023-04-16T17:04:17;100728.41;;;11.55;37.93
54666;BME280;40566;50.006;36.180;2023-04-16T17:09:18;100728.50;;;11.50;38.06
54666;BME280;40566;50.006;36.180;2023-04-16T17:14:18;100720.94;;;11.37;38.52
54666;BME280;40566;50.006;36.180;2023-04-16T17:19:19;100729.63;;;11.34;38.64
54666;BME280;40566;50.006;36.180;2023-04-16T17:24:20;100734.00;;;11.29;38.58
54666;BME280;40566;50.006;36.180;2023-04-16T17:29:21;100737.59;;;11.20;39.00
54666;BME280;40566;50.006;36.180;2023-04-16T17:34:25;100742.88;;;11.13;39.26
54666;BME280;40566;50.006;36.180;2023-04-16T17:39:25;100746.41;;;11.07;39.64
54666;BME280;40566;50.006;36.180;2023-04-16T17:44:26;100749.94;;;11.01;39.78
54666;BME280;40566;50.006;36.180;2023-04-16T17:49:27;100753.50;;;10.94;39.87
54666;BME280;40566;50.006;36.180;2023-04-16T17:54:27;100748.44;;;10.85;40.21
54666;BME280;40566;50.006;36.180;2023-04-16T17:59:28;100750.25;;;10.77;40.43
54666;BME280;40566;50.006;36.180;2023-04-16T18:04:29;100751.19;;;10.69;40.69
54666;BME280;40566;50.006;36.180;2023-04-16T18:09:31;100744.34;;;10.65;41.05
54666;BME280;40566;50.006;36.180;2023-04-16T18:14:35;100745.28;;;10.60;41.25
54666;BME280;40566;50.006;36.180;2023-04-16T18:19:36;100746.25;;;10.51;41.49
54666;BME280;40566;50.006;36.180;2023-04-16T18:24:39;100751.47;;;10.46;41.58
54666;BME280;40566;50.006;36.180;2023-04-16T18:29:39;100750.66;;;10.43;41.82
54666;BME280;40566;50.006;36.180;2023-04-16T18:34:40;100761.03;;;10.40;41.91
54666;BME280;40566;50.006;36.180;2023-04-16T18:39:41;100752.50;;;10.33;42.24
54666;BME280;40566;50.006;36.180;2023-04-16T18:44:41;100754.22;;;10.26;42.08
54666;BME280;40566;50.006;36.180;2023-04-16T18:49:42;100757.72;;;10.24;42.24
54666;BME280;40566;50.006;36.180;2023-04-16T18:54:42;100763.81;;;10.17;42.34
54666;BME280;40566;50.006;36.180;2023-04-16T18:59:43;100761.25;;;10.15;42.47
54666;BME280;40566;50.006;36.180;2023-04-16T19:04:43;100753.53;;;10.10;42.47
54666;BME280;40566;50.006;36.180;2023-04-16T19:09:44;100742.34;;;10.07;42.61
54666;BME280;40566;50.006;36.180;2023-04-16T19:14:45;100752.69;;;10.07;42.65
54666;BME280;40566;50.006;36.180;2023-04-16T19:19:45;100751.00;;;10.03;42.93
54666;BME280;40566;50.006;36.180;2023-04-16T19:24:46;100757.91;;;10.01;43.03
54666;BME280;40566;50.006;36.180;2023-04-16T19:29:46;100753.69;;;9.93;43.10
54666;BME280;40566;50.006;36.180;2023-04-16T19:34:47;100760.63;;;9.88;43.19
54666;BME280;40566;50.006;36.180;2023-04-16T19:39:48;100764.09;;;9.83;43.43
54666;BME280;40566;50.006;36.180;2023-04-16T19:44:48;100759.84;;;9.80;43.40
54666;BME280;40566;50.006;36.180;2023-04-16T19:49:49;100763.31;;;9.76;43.66
54666;BME280;40566;50.006;36.180;2023-04-16T19:54:49;100754.78;;;9.68;43.54
54666;BME280;40566;50.006;36.180;2023-04-16T19:59:50;100767.72;;;9.63;43.50
54666;BME280;40566;50.006;36.180;2023-04-16T20:04:51;100770.34;;;9.57;43.71
54666;BME280;40566;50.006;36.180;2023-04-16T20:09:52;100765.22;;;9.52;43.93
54666;BME280;40566;50.006;36.180;2023-04-16T20:14:53;100766.09;;;9.48;43.92
54666;BME280;40566;50.006;36.180;2023-04-16T20:19:53;100765.31;;;9.40;44.08
54666;BME280;40566;50.006;36.180;2023-04-16T20:24:56;100773.06;;;9.37;44.06
54666;BME280;40566;50.006;36.180;2023-04-16T20:30:00;100767.03;;;9.33;44.28
54666;BME280;40566;50.006;36.180;2023-04-16T20:35:01;100773.97;;;9.28;44.22
54666;BME280;40566;50.006;36.180;2023-04-16T20:40:05;100759.38;;;9.24;44.27
54666;BME280;40566;50.006;36.180;2023-04-16T20:45:07;100767.16;;;9.15;44.39
54666;BME280;40566;50.006;36.180;2023-04-16T20:50:08;100775.75;;;9.14;44.54
54666;BME280;40566;50.006;36.180;2023-04-16T20:55:10;100773.22;;;9.11;44.77
54666;BME280;40566;50.006;36.180;2023-04-16T21:00:11;100763.78;;;9.08;44.75
54666;BME280;40566;50.006;36.180;2023-04-16T21:05:12;100767.22;;;9.04;44.53
54666;BME280;40566;50.006;36.180;2023-04-16T21:10:15;100768.09;;;9.00;44.67
54666;BME280;40566;50.006;36.180;2023-04-16T21:15:19;100769.84;;;8.97;44.47
54666;BME280;40566;50.006;36.180;2023-04-16T21:20:20;100765.56;;;8.91;45.02
54666;BME280;40566;50.006;36.180;2023-04-16T21:25:20;100759.59;;;8.78;44.91
54666;BME280;40566;50.006;36.180;2023-04-16T21:30:21;100769.91;;;8.80;44.98
54666;BME280;40566;50.006;36.180;2023-04-16T21:35:22;100763.91;;;8.78;44.90
54666;BME280;40566;50.006;36.180;2023-04-16T21:40:22;100775.94;;;8.74;45.32
54666;BME280;40566;50.006;36.180;2023-04-16T21:45:23;100776.84;;;8.67;45.20
54666;BME280;40566;50.006;36.180;2023-04-16T21:50:23;100771.72;;;8.58;45.62
54666;BME280;40566;50.006;36.180;2023-04-16T21:55:24;100770.84;;;8.54;45.69
54666;BME280;40566;50.006;36.180;2023-04-16T22:00:24;100768.28;;;8.46;45.59
54666;BME280;40566;50.006;36.180;2023-04-16T22:05:25;100774.28;;;8.41;46.12
54666;BME280;40566;50.006;36.180;2023-04-16T22:10:26;100771.75;;;8.38;45.71
54666;BME280;40566;50.006;36.180;2023-04-16T22:15:27;100758.88;;;8.31;45.89
54666;BME280;40566;50.006;36.180;2023-04-16T22:20:28;100766.59;;;8.27;45.88
54666;BME280;40566;50.006;36.180;2023-04-16T22:25:30;100782.94;;;8.26;46.15
54666;BME280;40566;50.006;36.180;2023-04-16T22:30:30;100770.06;;;8.20;46.33
54666;BME280;40566;50.006;36.180;2023-04-16T22:35:31;100763.19;;;8.14;46.18
54666;BME280;40566;50.006;36.180;2023-04-16T22:40:32;100771.78;;;8.08;46.36
54666;BME280;40566;50.006;36.180;2023-04-16T22:45:32;100764.91;;;8.03;46.18
54666;BME280;40566;50.006;36.180;2023-04-16T22:50:34;100743.44;;;8.01;46.20
54666;BME280;40566;50.006;36.180;2023-04-16T22:55:34;100754.59;;;7.95;46.27
54666;BME280;40566;50.006;36.180;2023-04-16T23:00:35;100753.75;;;7.93;46.46
54666;BME280;40566;50.006;36.180;2023-04-16T23:05:36;100749.47;;;7.89;46.12
54666;BME280;40566;50.006;36.180;2023-04-16T23:10:37;100745.19;;;7.86;46.15
54666;BME280;40566;50.006;36.180;2023-04-16T23:15:37;100755.47;;;7.83;45.96
54666;BME280;40566;50.006;36.180;2023-04-16T23:20:38;100746.03;;;7.78;46.23
54666;BME280;40566;50.006;36.180;2023-04-16T23:25:40;100738.31;;;7.74;46.24
54666;BME280;40566;50.006;36.180;2023-04-16T23:30:40;100742.59;;;7.72;46.73
54666;BME280;40566;50.006;36.180;2023-04-16T23:35:41;100751.19;;;7.68;46.73
54666;BME280;40566;50.006;36.180;2023-04-16T23:40:41;100741.75;;;7.61;46.62
54666;BME280;40566;50.006;36.180;2023-04-16T23:45:42;100746.88;;;7.60;46.65
54666;BME280;40566;50.006;36.180;2023-04-16T23:50:42;100751.16;;;7.56;46.95
54666;BME280;40566;50.006;36.180;2023-04-16T23:55:43;100746.91;;;7.50;46.84
